Meteo Giornale » Osservazioni meteo Italia » Milano-Malpensa

ore: 04:20 - Osservazioni Meteo Milano-Malpensa
Lat. 45° 37' N Lon. 8° 44' E Alt. 234 metri s.l.m.

sereno Europe/Rome

13 °C

Sereno

Temp. 24 Ore

11 °C

28 °C

Nord

11.1 Km/h

Dew point 9 °C

Umidità 76 %

Visibilità  10 Km

Il sole sorge alle ore 06:24

Il sole tramonta alle ore 20:22

Data e Ora Cielo e Fenomeni T °C DP °C Um. % Pres. hPa Vis. km Vento km/h
Oggi h: 04:20 sereno Sereno 13 9 76 1018 10 N 11.1
Oggi h: 03:50 sereno Sereno 13 9 76 1018 10 N 9.3
Oggi h: 03:20 sereno Sereno 14 10 76 1018 10 N/NE 11.1
Oggi h: 02:50 sereno Sereno 14 10 76 1018 10 N 11.1
Oggi h: 02:20 sereno Sereno 15 10 72 1018 10 N/NE 13
Oggi h: 01:50 sereno Sereno 17 10 63 1018 10 N 13
Oggi h: 01:20 sereno Sereno 15 10 72 1018 10 N 11.1
Oggi h: 00:50 sereno Sereno 18 10 59 1018 10 N 9.3
Oggi h: 00:20 sereno Sereno 16 10 67 1018 10 N 9.3
Ieri h: 23:50 sereno Sereno 18 10 59 1018 10 N 5.5
Ieri h: 23:20 sereno Sereno 18 9 55 1018 10 N 5.5
Ieri h: 22:50 sereno Sereno 18 9 55 1018 10 E/SE 11.1
Ieri h: 22:20 sereno Sereno 19 9 52 1018 10 E/SE 7.4
Ieri h: 21:50 sereno Sereno 17 9 59 1017 10 E/SE 11.1
Ieri h: 21:20 sereno Sereno 19 9 52 1017 10 N 3.7
Ieri h: 20:50 sereno Sereno 21 7 40 1017 10 N 5.5
Ieri h: 20:20 sereno Sereno 24 7 33 1017 10 N 1.8
Ieri h: 19:50 sereno Sereno 25 7 31 1017 10 S/SO 7.4
Ieri h: 19:20 sereno Sereno 26 6 27 1017 10 S/SO 13
Ieri h: 18:50 sereno Sereno 27 6 26 1017 10 S/SO 14.8
Ieri h: 18:20 sereno Sereno 27 5 24 1017 10 SO 13
Ieri h: 17:50 sereno Sereno 27 6 26 1017 10 S/SO 13
Ieri h: 17:20 sereno Sereno 28 6 24 1017 10 S/SO 13
Ieri h: 16:50 sereno Sereno 28 6 24 1018 10 SO 13
Ieri h: 16:20 sereno Sereno 27 7 28 1018 10 S/SO 14.8
Ieri h: 15:50 sereno Sereno 28 8 28 1018 10 S 9.3
Ieri h: 15:20 sereno Sereno 27 8 30 1018 10 S/SO 9.3
Ieri h: 14:50 sereno Sereno 28 9 30 1019 10 N 9.3
Ieri h: 14:20 sereno Sereno 27 8 30 1019 10 S 9.3
Ieri h: 13:50 sereno Sereno 27 8 30 1020 10 N 5.5
Ieri h: 13:20 sereno Sereno 27 7 28 1020 10 N 3.7
Ieri h: 12:50 sereno Sereno 26 8 31 1020 10 N 5.5
Ieri h: 12:20 sereno Sereno 26 8 31 1021 10 N 5.5
Ieri h: 11:50 sereno Sereno 25 8 33 1021 10 N 5.5
Ieri h: 11:20 sereno Sereno 25 7 31 1021 10 N 5.5
Ieri h: 10:20 sereno Sereno 23 7 35 1021 10 N 7.4
Ieri h: 09:20 sereno Sereno 20 9 49 1021 10 N 9.3
Ieri h: 08:20 sereno Sereno 17 10 63 1021 10 N 7.4
Ieri h: 07:20 sereno Sereno 13 8 71 1021 10 N 11.1
Ieri h: 06:20 sereno Sereno 11 7 76 1021 10 N 9.3
Ieri h: 05:50 sereno Sereno 12 8 76 1021 10 N/NE 11.1
Ieri h: 05:20 sereno Sereno 11 8 81 1021 10 N 11.1
Ieri h: 04:50 sereno Sereno 13 9 76 1021 10 N 13